Timeline UpdatesTrip UpdatesNews PostsPvt PostsTravel TipsAdmin PostsConv PostsFollowed PostsChat RequestsBlog PostsPNR Posts

Disclaimer
Search
 
 
Tue Sep 30, 2014 17:21:47 ISTHomeTrainsΣChainsAtlasPNRForumGalleryNewsFAQTripsMembersLoginFeedback
No Recent News for this Train
Other Trains in the News **new
Latest...
⇐ Return Journey: Train# 59814

59813/Kota Agra Yamuna Bridge Passenger (UnReserved)

Time-Table HAS CHANGED.
Sep 03 (6:18PM)
Change Departure Station:
Change Arrival Station:
Post a Train Travel TipPost a Train Travel Tip **new
Post a Comment/Question/Picture/VideoPost a Comment/Question/Picture/Video
Pantry/Catering
✕ NO Pantry Car
✕ NO Catering
RSA - Rake Sharing
Rake/Coach Composition
Loco
WAM - 4
News    PNR    Forum    Time-Table    Availability    Fare Chart    Map    Arr/Dep History    Trips    Gallery    ΣChains    X/O    Timeline    
Travel Time: 5h 49m    24 halts    Distance: 240 km    Avg Speed: 41 km/hr
Type: Passenger
Zone: WR/Western
Departs @ 07:15 (Avg 2m late)
Platform# 1
SMTWTFS
Kota Junction/KOTA 
Arrives @ 13:04 (Avg 33m late)
Platform# ???
SMTWTFS
Dumariya/DY 

24 halts. 31 intermediate Stations between Kota Junction and Dumariya

Show ALL intermediate Stations  Show Old Time-Table

#CodeStation NameX/OArrivesAvgDepartsAvgHaltPFDay#KmSpeedElevZoneAddress
1KOTAKota Junction (5)»-07:15+2110.036256mWCRKota, Rajasthan
2GQLGurla  07:24+1007:25+101m--15.453251mWCRSH 33, Rajasthan
3KPTNKeshorai Patan  07:34+907:35+101m--113.473243mWCRSH 33, Rajasthan
4AREArnetha  07:44+1007:45+101m--124.361239mWCRShreepura, Rajasthan
5KPZKaprenO  07:54+1007:55+121m--133.567234mWCRKota - Lalsot Mega Highway, Rajasthan
6GKBGhataka Varana  08:04+1308:05+161m--143.562232mWCRSH 33, Rajasthan
7LBNLaban (2)  08:14+1608:15+201m--152.950225mWCRBundi, Rajasthan
8LKELakheri (3)X  08:24+1908:25+231m--160.535228mWCRBundi, Rajasthan
9IDGIndargarh Sumerganj Mandi (2)  08:44+1508:45+251m--171.478247mWCRIndargarh, Rajasthan
10AMLIAmli  08:54 08:55+2708:55 08:56+271m--184.557233mWCRSawai Madhopur, Rajasthan
11RWJRawania DungarXO  09:04+2709:05+291m--192.156266mWCRSawai Madhopur, Rajasthan
12KTAKushtalaX  09:14+2909:15+321m--1100.611283mWCRNH 116, Rajasthan
13SWMSawai Madhopur Junction (4)  09:50 09:54+1009:55+135 1m--1107.768266mWCRSawai Madhopur, Rajasthan
14RNTRanthambhore  10:04+2110:05+211m--1117.961248mWCRMDR 111, Rajasthan
15MXLMokholi  10:14+2110:15+211m--1127.165242mWCRMDR 111, Rajasthan
16MLZMalarnaX  10:24 10:25+2110:25 10:26+221m--1137.954236mWCRSawai Madhopur, Rajasthan
17NMDNomodaX  10:34+2110:35+211m--1145.041238mWCRMDR 111, Rajasthan
18NNWNarayanpur Tatwara (2)  10:49+1710:50+191m--1154.771256mWCRSawai Madhopur, Rajasthan
19LRULalpur UmriX  10:59+2111:00+201m--1165.311276mWCRSH 1, Rajasthan
20GGCGangapur City (3)X  11:25 11:34+311:35+210 1m--1171.664270mWCRGangapur, Rajasthan
21COOChhoti OdaiX  11:47+811:48+111m--1184.353257mWCRSH 25, Rajasthan
22PDZPiliodaX  11:57+1211:58+131m--1192.248247mWCRSH 1, Rajasthan
23SMBJShri Mahabirji (3)  12:15+1412:16+351m--1205.731240mWCRKarauli, Rajasthan
24HANHindaun City (2)X  12:36+2112:37+241m21215.957230mWCRKarauli, Rajasthan
25FSPFateh Singhpura  12:51+3812:52+381m--1229.153223mWCRState Highway 1, Rajasthan
26DYDumariya (2)•XO  13:09 13:04+3313:10 13:05+501m--1239.78211mWCRState Highway 1, Rajasthan
27BXNBayana Junction (3)X  14:20 14:15-114:50 14:40+030 25m--1248.817198mWCRBayana, Rajasthan
28BAMABirambad (1)  14:56-14:57-1m11253.246196mNCRDumariya, Rajasthan
29BRBandh Bareta (1)  15:04 15:03+1215:05 15:04+181m11257.949203mNCRDumariya, Rajasthan
30NGLTNaglatula (1)  15:10 15:11-15:11 15:12-1m11263.654209mNCRBayana, Rajasthan
31BIQBansi Paharpur (1)  15:18 15:19+2615:19 15:20+311m11269.950216mNCRRupbas, Rajasthan
32DXKDhana Kherli (1)X  15:26 15:27-15:27 15:28-1m11275.754192mNCRFatehpur Sikri, Uttar Pradesh
33RBSRupbas (2)  15:35 15:36+3115:36 15:37+431m--1282.940178mNCRJAGNER ROAD, Rajasthan
34AEDAulenda (1)  15:43 15:45-15:44 15:46-1m11288.266179mNCRKiraoli, Uttar Pradesh
35FTSFatehpur Sikri (2)  15:54+3515:55+361m--1297.134176mNCRAgra, Uttar Pradesh
36SNPRSingarpur (1)  16:03 16:04-16:04 16:05-1m11302.262168mNCRRupbas, Rajasthan
37KLBKiraoli (1)  16:12+4016:13+411m11309.561174mNCRKiraoli, Uttar Pradesh
38MIQMirhakur (1)  16:22 16:21+4816:23 16:22+491m11317.645172mNCRIdgah Agra, Uttar Pradesh
39PTLIPathauli (1)  16:31 16:30+4916:32 16:31+491m11323.650174mNCRAgra Fort, Uttar Pradesh
40IDHIdgah Agra Junction (3)  16:44 16:40+4916:45 16:41+511m--1331.19168mNCRAgra, Uttar Pradesh
41AFAgra Fort (3)  17:00 16:55+2317:10 17:05+2810m21333.37170mNCRRakabganj, Uttar Pradesh
42JABYamuna Bridge Agra (3)  17:25+1:01-21335.8-168mNCRAgra, Uttar Pradesh
Scroll to Top
Scroll to Bottom